createdAt,value
2019-05-01T00:00:17.537Z,38.00
2019-05-01T00:01:31.009Z,40.20
2019-05-01T00:02:44.769Z,40.60
2019-05-01T00:03:47.509Z,39.20
2019-05-01T00:04:49.245Z,39.00
2019-05-01T00:05:53.907Z,41.00
2019-05-01T00:07:06.989Z,44.40
2019-05-01T00:08:09.886Z,43.00
2019-05-01T00:09:12.733Z,38.20
2019-05-01T00:10:19.362Z,39.00
2019-05-01T00:11:22.245Z,43.00
2019-05-01T00:12:24.698Z,40.40
2019-05-01T00:13:27.798Z,39.60
2019-05-01T00:14:31.971Z,38.60
2019-05-01T00:15:37.680Z,37.20
2019-05-01T00:16:42.041Z,35.00
2019-05-01T00:17:44.552Z,40.20
2019-05-01T00:18:47.046Z,39.80
2019-05-01T00:19:49.766Z,37.80
2019-05-01T00:20:54.762Z,40.60
2019-05-01T00:21:57.292Z,39.60
2019-05-01T00:23:00.235Z,40.00
2019-05-01T00:24:03.792Z,42.20
2019-05-01T00:25:05.821Z,44.20
2019-05-01T00:26:08.805Z,42.00
2019-05-01T00:27:11.370Z,42.60
2019-05-01T00:28:13.910Z,42.60
2019-05-01T00:29:18.133Z,41.80
2019-05-01T00:30:29.828Z,44.40
2019-05-01T00:31:26.537Z,43.40
2019-05-01T00:32:29.986Z,41.00
2019-05-01T00:33:31.812Z,41.60
2019-05-01T00:34:34.148Z,42.00
2019-05-01T00:35:38.460Z,43.40
2019-05-01T00:36:41.235Z,41.00
2019-05-01T00:37:45.349Z,44.40
2019-05-01T00:38:47.630Z,45.80
2019-05-01T00:39:50.159Z,45.80
2019-05-01T00:40:52.896Z,46.60
2019-05-01T00:41:56.837Z,44.00
2019-05-01T00:42:58.631Z,46.20
2019-05-01T00:44:00.326Z,46.40
2019-05-01T00:45:05.070Z,41.20
2019-05-01T00:46:07.027Z,38.00
2019-05-01T00:47:09.499Z,44.60
2019-05-01T00:48:12.225Z,37.40
2019-05-01T00:49:15.217Z,41.60
2019-05-01T00:50:18.007Z,39.40
2019-05-01T00:51:21.091Z,40.40
2019-05-01T00:52:23.469Z,44.40
2019-05-01T00:53:25.999Z,44.80
2019-05-01T00:54:29.543Z,42.40
2019-05-01T00:55:47.587Z,42.80
2019-05-01T00:56:52.299Z,45.20
2019-05-01T00:58:00.006Z,45.80
2019-05-01T00:59:04.984Z,42.00
2019-05-01T01:00:28.395Z,43.00
2019-05-01T01:01:38.747Z,42.60
2019-05-01T01:02:43.658Z,37.80
2019-05-01T01:03:45.539Z,39.60
2019-05-01T01:04:48.067Z,40.40
2019-05-01T01:05:50.834Z,43.00
2019-05-01T01:06:53.013Z,41.00
2019-05-01T01:07:56.302Z,38.80
2019-05-01T01:09:00.797Z,42.40
2019-05-01T01:10:05.905Z,44.00
2019-05-01T01:11:08.521Z,41.20
2019-05-01T01:12:10.449Z,41.80
2019-05-01T01:13:14.147Z,41.20
2019-05-01T01:14:17.028Z,43.00
2019-05-01T01:15:19.149Z,42.40
2019-05-01T01:16:21.716Z,41.40
2019-05-01T01:17:25.892Z,41.00
2019-05-01T01:18:28.072Z,40.80
2019-05-01T01:19:31.886Z,42.20
2019-05-01T01:20:34.151Z,42.00
2019-05-01T01:21:36.750Z,41.60
2019-05-01T01:22:39.712Z,43.60
2019-05-01T01:23:43.036Z,40.60
2019-05-01T01:24:47.636Z,40.80
2019-05-01T01:25:50.490Z,38.20
2019-05-01T01:26:53.252Z,41.60
2019-05-01T01:27:55.314Z,41.00
2019-05-01T01:28:58.571Z,42.00
2019-05-01T01:30:00.950Z,40.60
2019-05-01T01:31:03.546Z,42.80
2019-05-01T01:32:08.042Z,41.00
2019-05-01T01:33:10.783Z,41.40
2019-05-01T01:34:14.030Z,39.00
2019-05-01T01:35:17.774Z,39.00
2019-05-01T01:36:20.388Z,43.20
2019-05-01T01:37:22.976Z,41.20
2019-05-01T01:38:25.784Z,39.40
2019-05-01T01:39:29.165Z,42.40
2019-05-01T01:40:31.398Z,40.20
2019-05-01T01:41:34.369Z,41.60
2019-05-01T01:42:37.351Z,42.00
2019-05-01T01:43:53.451Z,41.40
2019-05-01T01:44:58.096Z,41.00
2019-05-01T01:46:05.944Z,41.80
2019-05-01T01:47:08.863Z,41.40
2019-05-01T01:48:13.094Z,43.20
2019-05-01T01:49:15.387Z,43.60
2019-05-01T01:50:17.828Z,42.80
2019-05-01T01:51:20.431Z,41.00
2019-05-01T01:52:23.724Z,42.40
2019-05-01T01:53:26.324Z,41.40
2019-05-01T01:54:29.241Z,41.80
2019-05-01T01:55:31.639Z,41.20
2019-05-01T01:56:35.048Z,41.80
2019-05-01T01:57:37.666Z,41.40
2019-05-01T01:58:40.405Z,38.60
2019-05-01T01:59:43.349Z,38.20
2019-05-01T02:01:09.679Z,39.00
2019-05-01T02:02:16.195Z,41.60
2019-05-01T02:03:19.073Z,43.20
2019-05-01T02:04:26.329Z,42.20
2019-05-01T02:05:32.323Z,40.60
2019-05-01T02:06:34.773Z,40.60
2019-05-01T02:07:37.520Z,42.00
2019-05-01T02:08:40.075Z,43.60
2019-05-01T02:09:42.972Z,41.20
2019-05-01T02:10:45.729Z,41.60
2019-05-01T02:11:49.144Z,42.00
2019-05-01T02:12:51.196Z,43.40
2019-05-01T02:13:55.077Z,43.60
2019-05-01T02:14:58.251Z,43.20
2019-05-01T02:16:00.700Z,43.20
2019-05-01T02:17:03.574Z,44.60
2019-05-01T02:18:06.057Z,43.60
2019-05-01T02:19:08.543Z,44.00
2019-05-01T02:20:11.987Z,43.00
2019-05-01T02:21:15.016Z,43.00
2019-05-01T02:22:16.940Z,43.20
2019-05-01T02:23:19.254Z,44.40
2019-05-01T02:24:21.864Z,45.00
2019-05-01T02:25:24.564Z,43.00
2019-05-01T02:26:30.006Z,42.00
2019-05-01T02:27:36.720Z,40.60
2019-05-01T02:28:59.207Z,42.20
2019-05-01T02:30:08.632Z,44.00
2019-05-01T02:31:27.750Z,44.20
2019-05-01T02:32:26.847Z,45.20
2019-05-01T02:33:29.462Z,43.60
2019-05-01T02:34:34.556Z,43.60
2019-05-01T02:35:38.055Z,42.40
2019-05-01T02:36:42.344Z,42.80
2019-05-01T02:37:47.879Z,43.20
2019-05-01T02:38:53.617Z,42.80
2019-05-01T02:39:57.695Z,40.40
2019-05-01T02:41:02.211Z,42.60
2019-05-01T02:42:07.893Z,41.60
2019-05-01T02:43:14.477Z,44.00
2019-05-01T02:44:34.917Z,44.60
2019-05-01T02:45:41.146Z,44.60
2019-05-01T02:46:47.823Z,44.40
2019-05-01T02:47:50.922Z,43.20
2019-05-01T02:49:10.587Z,44.40
2019-05-01T02:50:15.806Z,43.80
2019-05-01T02:51:19.025Z,42.60
2019-05-01T02:52:24.788Z,42.40
2019-05-01T02:53:29.915Z,43.40
2019-05-01T02:54:33.674Z,43.20
2019-05-01T02:55:38.679Z,44.40
2019-05-01T02:56:45.976Z,42.40
2019-05-01T02:57:50.100Z,43.00
2019-05-01T02:58:55.866Z,40.80
2019-05-01T02:59:58.921Z,40.20
2019-05-01T03:01:01.848Z,40.00
2019-05-01T03:02:06.342Z,39.60
2019-05-01T03:03:10.151Z,43.00
2019-05-01T03:04:13.802Z,42.40
2019-05-01T03:05:16.646Z,41.20
2019-05-01T03:06:20.980Z,41.40
2019-05-01T03:07:26.890Z,41.20
2019-05-01T03:08:30.120Z,41.00
2019-05-01T03:09:32.775Z,40.00
2019-05-01T03:10:36.130Z,41.20
2019-05-01T03:11:39.970Z,39.00
2019-05-01T03:12:45.650Z,36.20
2019-05-01T03:13:52.316Z,38.40
2019-05-01T03:14:58.517Z,38.60
2019-05-01T03:16:02.815Z,38.80
2019-05-01T03:17:09.602Z,38.80
2019-05-01T03:18:15.429Z,41.00
2019-05-01T03:19:21.204Z,36.80
2019-05-01T03:20:43.666Z,39.80
2019-05-01T03:21:51.183Z,39.40
2019-05-01T03:23:12.330Z,36.00
2019-05-01T03:24:19.907Z,35.40
2019-05-01T03:25:22.942Z,38.00
2019-05-01T03:26:25.867Z,38.00
2019-05-01T03:27:28.529Z,39.60
2019-05-01T03:28:31.429Z,38.60
2019-05-01T03:29:34.953Z,39.80
2019-05-01T03:30:37.828Z,39.40
2019-05-01T03:31:40.534Z,38.40
2019-05-01T03:32:43.251Z,36.00
2019-05-01T03:33:46.374Z,38.80
2019-05-01T03:34:52.690Z,40.80
2019-05-01T03:35:54.077Z,36.00
2019-05-01T03:36:56.856Z,39.00
2019-05-01T03:37:59.282Z,39.20
2019-05-01T03:39:04.847Z,38.00
2019-05-01T03:40:07.582Z,39.20
2019-05-01T03:41:11.090Z,39.40
2019-05-01T03:42:13.529Z,39.00
2019-05-01T03:43:16.345Z,40.00
2019-05-01T03:44:19.194Z,39.60
2019-05-01T03:45:22.516Z,39.60
2019-05-01T03:46:25.473Z,41.80
2019-05-01T03:47:29.083Z,42.00
2019-05-01T03:48:32.742Z,37.20
2019-05-01T03:49:35.372Z,39.40
2019-05-01T03:50:38.679Z,35.80
2019-05-01T03:51:40.700Z,36.20
2019-05-01T03:52:43.120Z,37.80
2019-05-01T03:53:46.032Z,38.80
2019-05-01T03:54:48.938Z,39.20
2019-05-01T03:55:52.019Z,39.00
2019-05-01T03:56:56.231Z,36.60
2019-05-01T03:57:59.435Z,38.60
2019-05-01T03:59:03.222Z,39.40
2019-05-01T04:00:08.034Z,42.20
2019-05-01T04:01:18.385Z,39.60
2019-05-01T04:02:33.638Z,39.80
2019-05-01T04:03:31.880Z,39.00
2019-05-01T04:04:34.787Z,38.80
2019-05-01T04:05:37.168Z,38.60
2019-05-01T04:06:40.092Z,38.60
2019-05-01T04:07:45.495Z,37.20
2019-05-01T04:08:48.546Z,36.40
2019-05-01T04:09:51.066Z,39.40
2019-05-01T04:10:54.215Z,37.40
2019-05-01T04:11:56.412Z,39.60
2019-05-01T04:12:58.669Z,39.40
2019-05-01T04:14:01.496Z,37.40
2019-05-01T04:15:05.057Z,35.00
2019-05-01T04:16:08.402Z,37.00
2019-05-01T04:17:30.565Z,36.60
2019-05-01T04:18:33.290Z,35.60
2019-05-01T04:19:36.272Z,38.20
2019-05-01T04:20:39.095Z,36.00
2019-05-01T04:21:46.745Z,35.20
2019-05-01T04:22:49.383Z,33.40
2019-05-01T04:23:52.224Z,32.80
2019-05-01T04:24:55.091Z,33.80
2019-05-01T04:25:59.473Z,36.20
2019-05-01T04:27:03.269Z,35.80
2019-05-01T04:28:24.695Z,35.00
2019-05-01T04:29:29.666Z,31.80
2019-05-01T04:30:34.380Z,37.60
2019-05-01T04:31:50.940Z,32.00
2019-05-01T04:32:55.925Z,35.40
2019-05-01T04:34:17.225Z,34.40
2019-05-01T04:35:28.034Z,33.20
2019-05-01T04:36:32.451Z,35.20
2019-05-01T04:37:35.683Z,36.60
2019-05-01T04:38:38.461Z,33.00
2019-05-01T04:39:41.116Z,33.00
2019-05-01T04:40:44.071Z,32.40
2019-05-01T04:41:46.539Z,33.40
2019-05-01T04:42:49.432Z,33.00
2019-05-01T04:43:52.789Z,33.00
2019-05-01T04:44:56.877Z,32.80
2019-05-01T04:46:00.497Z,34.40
2019-05-01T04:47:04.954Z,34.60
2019-05-01T04:48:07.820Z,35.80
2019-05-01T04:49:11.007Z,36.00
2019-05-01T04:50:14.498Z,35.00
2019-05-01T04:51:17.254Z,34.40
2019-05-01T04:52:20.238Z,32.60
2019-05-01T04:53:22.877Z,33.60
2019-05-01T04:54:25.903Z,32.00
2019-05-01T04:55:27.996Z,30.00
2019-05-01T04:56:31.031Z,33.00
2019-05-01T04:57:33.815Z,32.80
2019-05-01T04:58:37.185Z,27.80
2019-05-01T04:59:41.769Z,33.00
2019-05-01T05:00:44.681Z,34.20
2019-05-01T05:01:52.113Z,31.40
2019-05-01T05:03:04.478Z,33.00
2019-05-01T05:04:01.508Z,35.00
2019-05-01T05:05:05.711Z,33.00
2019-05-01T05:06:08.244Z,32.00
2019-05-01T05:07:10.629Z,36.40
2019-05-01T05:08:13.823Z,33.00
2019-05-01T05:09:15.936Z,33.00
2019-05-01T05:10:18.086Z,34.20
2019-05-01T05:11:25.664Z,34.00
2019-05-01T05:12:45.863Z,32.00
2019-05-01T05:14:07.410Z,32.20
2019-05-01T05:15:19.068Z,32.60
2019-05-01T05:16:40.184Z,31.80
2019-05-01T05:17:44.288Z,31.60
2019-05-01T05:18:46.783Z,31.00
2019-05-01T05:19:49.354Z,31.20
2019-05-01T05:20:52.169Z,29.80
2019-05-01T05:21:55.566Z,31.00
2019-05-01T05:22:58.833Z,32.20
2019-05-01T05:24:01.480Z,29.20
2019-05-01T05:25:04.783Z,30.40
2019-05-01T05:26:07.384Z,27.60
2019-05-01T05:27:12.289Z,28.20
2019-05-01T05:28:15.040Z,30.20
2019-05-01T05:29:18.821Z,30.00
2019-05-01T05:30:22.332Z,30.60
2019-05-01T05:31:25.637Z,28.80
2019-05-01T05:32:30.657Z,34.00
2019-05-01T05:33:34.741Z,26.20
2019-05-01T05:34:39.892Z,28.20
2019-05-01T05:35:43.263Z,29.00
2019-05-01T05:36:49.716Z,26.80
2019-05-01T05:37:57.130Z,27.40
2019-05-01T05:39:03.704Z,26.20
2019-05-01T05:40:08.403Z,27.00
2019-05-01T05:41:13.315Z,24.40
2019-05-01T05:42:16.195Z,23.40
2019-05-01T05:43:18.193Z,24.60
2019-05-01T05:44:22.799Z,21.60
2019-05-01T05:45:26.151Z,23.40
2019-05-01T05:46:29.111Z,21.40
2019-05-01T05:47:31.712Z,22.00
2019-05-01T05:48:34.093Z,21.00
2019-05-01T05:49:37.207Z,24.80
2019-05-01T05:50:48.179Z,20.40
2019-05-01T05:52:00.162Z,26.40
2019-05-01T05:53:07.950Z,20.00
2019-05-01T05:54:13.738Z,19.20
2019-05-01T05:55:20.129Z,22.00
2019-05-01T05:56:27.248Z,20.60
2019-05-01T05:57:42.480Z,25.00
2019-05-01T05:58:57.736Z,22.60
2019-05-01T06:00:03.350Z,25.20
2019-05-01T06:01:17.986Z,22.60
2019-05-01T06:02:23.168Z,26.40
2019-05-01T06:03:44.946Z,21.00
2019-05-01T06:05:07.668Z,18.80
2019-05-01T06:06:22.337Z,19.00
2019-05-01T06:07:30.989Z,17.60
2019-05-01T06:08:37.318Z,18.40
2019-05-01T06:09:48.510Z,20.00
2019-05-01T06:11:08.716Z,22.80
2019-05-01T06:12:30.787Z,19.20
2019-05-01T06:13:56.880Z,20.00
2019-05-01T06:15:19.189Z,20.20
2019-05-01T06:16:24.980Z,17.60
2019-05-01T06:17:33.391Z,16.00
2019-05-01T06:18:47.895Z,22.40
2019-05-01T06:19:53.624Z,17.60
2019-05-01T06:21:02.578Z,17.80
2019-05-01T06:22:19.070Z,17.00
2019-05-01T06:23:26.365Z,20.20
2019-05-01T06:24:31.630Z,14.40
2019-05-01T06:25:41.476Z,22.20
2019-05-01T06:26:44.419Z,16.80
2019-05-01T06:27:49.238Z,15.20
2019-05-01T06:28:55.814Z,16.20
2019-05-01T06:29:57.564Z,14.40
2019-05-01T06:31:17.786Z,17.40
2019-05-01T06:32:28.758Z,15.80
2019-05-01T06:33:29.155Z,20.00
2019-05-01T06:34:32.016Z,16.40
2019-05-01T06:35:38.237Z,17.40
2019-05-01T06:36:39.421Z,19.20
2019-05-01T06:38:02.605Z,15.00
2019-05-01T06:39:11.850Z,17.00
2019-05-01T06:40:13.931Z,16.60
2019-05-01T06:41:18.291Z,16.60
2019-05-01T06:42:23.016Z,18.60
2019-05-01T06:43:36.485Z,15.60
2019-05-01T06:44:48.106Z,14.20
2019-05-01T06:45:53.187Z,20.00
2019-05-01T06:47:03.233Z,14.60
2019-05-01T06:48:07.414Z,14.80
2019-05-01T06:49:17.965Z,15.00
2019-05-01T06:50:32.342Z,18.00
2019-05-01T06:51:41.445Z,15.40
2019-05-01T06:52:44.724Z,15.40
2019-05-01T06:53:48.589Z,12.40
2019-05-01T06:54:53.619Z,15.20
2019-05-01T06:55:56.395Z,18.00
2019-05-01T06:57:02.227Z,12.40
2019-05-01T06:58:05.858Z,14.60
2019-05-01T06:59:09.239Z,14.40
2019-05-01T07:00:13.738Z,11.80
2019-05-01T07:01:19.194Z,13.60
2019-05-01T07:02:22.686Z,14.00
2019-05-01T07:03:25.784Z,14.60
2019-05-01T07:04:32.495Z,15.80
2019-05-01T07:05:33.465Z,20.20
2019-05-01T07:06:36.749Z,14.00
2019-05-01T07:07:39.440Z,13.80
2019-05-01T07:08:42.389Z,13.80
2019-05-01T07:09:49.346Z,14.00
2019-05-01T07:10:52.647Z,18.80
2019-05-01T07:11:56.354Z,14.60
2019-05-01T07:13:04.839Z,14.80
2019-05-01T07:14:11.226Z,13.20
2019-05-01T07:15:14.451Z,14.00
2019-05-01T07:16:18.108Z,14.00
2019-05-01T07:17:21.195Z,12.80
2019-05-01T07:18:28.808Z,12.00
2019-05-01T07:19:49.364Z,11.60
2019-05-01T07:20:53.228Z,16.00
2019-05-01T07:21:56.404Z,12.40
2019-05-01T07:22:59.533Z,13.00
2019-05-01T07:24:02.147Z,13.40
2019-05-01T07:25:08.097Z,13.00
2019-05-01T07:26:13.693Z,13.80
2019-05-01T07:27:18.857Z,13.20
2019-05-01T07:28:20.851Z,11.00
2019-05-01T07:29:28.685Z,13.60
2019-05-01T07:30:44.827Z,12.00
2019-05-01T07:31:47.749Z,11.00
2019-05-01T07:32:52.025Z,12.20
2019-05-01T07:33:54.923Z,11.00
2019-05-01T07:35:02.165Z,10.00
2019-05-01T07:36:07.012Z,13.00
2019-05-01T07:37:08.630Z,12.60
2019-05-01T07:38:11.209Z,10.60
2019-05-01T07:39:15.922Z,14.80
2019-05-01T07:40:20.770Z,12.00
2019-05-01T07:41:23.591Z,12.40
2019-05-01T07:42:28.372Z,14.00
2019-05-01T07:43:55.013Z,12.40
2019-05-01T07:45:09.800Z,12.20
2019-05-01T07:46:18.350Z,15.20
2019-05-01T07:47:25.902Z,12.40
2019-05-01T07:48:41.697Z,13.00
2019-05-01T07:49:54.798Z,13.60
2019-05-01T07:51:01.863Z,12.20
2019-05-01T07:52:02.502Z,11.80
2019-05-01T07:53:05.552Z,12.60
2019-05-01T07:54:09.031Z,13.20
2019-05-01T07:55:18.208Z,12.80
2019-05-01T07:56:22.843Z,11.00
2019-05-01T07:57:24.043Z,12.20
2019-05-01T07:58:28.067Z,12.20
2019-05-01T07:59:30.668Z,13.80
2019-05-01T08:00:49.894Z,12.00
2019-05-01T08:01:57.100Z,11.00
2019-05-01T08:03:02.634Z,13.00
2019-05-01T08:04:04.409Z,11.40
2019-05-01T08:05:10.068Z,14.40
2019-05-01T08:06:16.340Z,13.80
2019-05-01T08:07:19.304Z,12.60
2019-05-01T08:08:23.738Z,14.20
2019-05-01T08:09:26.666Z,13.80
2019-05-01T08:10:31.548Z,12.80
2019-05-01T08:11:32.764Z,13.40
2019-05-01T08:12:35.860Z,13.40
2019-05-01T08:13:38.266Z,12.00
2019-05-01T08:14:40.684Z,10.60
2019-05-01T08:15:42.890Z,13.20
2019-05-01T08:16:45.735Z,13.00
2019-05-01T08:17:54.288Z,12.60
2019-05-01T08:19:05.915Z,15.20
2019-05-01T08:20:15.112Z,13.80
2019-05-01T08:21:26.205Z,12.20
2019-05-01T08:22:32.053Z,12.20
2019-05-01T08:23:31.958Z,12.80
2019-05-01T08:24:33.855Z,11.60
2019-05-01T08:25:36.088Z,11.80
2019-05-01T08:26:39.652Z,11.00
2019-05-01T08:27:56.418Z,13.20
2019-05-01T08:29:14.813Z,12.80
2019-05-01T08:30:22.245Z,11.40
2019-05-01T08:31:34.807Z,12.40
2019-05-01T08:32:44.848Z,11.40
2019-05-01T08:33:55.598Z,11.00
2019-05-01T08:35:00.551Z,11.00
2019-05-01T08:36:06.935Z,12.80
2019-05-01T08:37:11.421Z,11.60
2019-05-01T08:38:14.245Z,11.60
2019-05-01T08:39:17.040Z,12.40
2019-05-01T08:40:21.768Z,10.60
2019-05-01T08:41:27.142Z,13.00
2019-05-01T08:42:29.422Z,11.00
2019-05-01T08:43:32.077Z,11.40
2019-05-01T08:44:42.208Z,11.80
2019-05-01T08:45:47.537Z,11.80
2019-05-01T08:47:08.905Z,11.80
2019-05-01T08:48:13.301Z,11.60
2019-05-01T08:49:29.302Z,12.00
2019-05-01T08:50:32.285Z,11.20
2019-05-01T08:51:35.184Z,12.00
2019-05-01T08:52:42.746Z,12.20
2019-05-01T08:53:43.885Z,12.20
2019-05-01T08:54:45.857Z,11.60
2019-05-01T08:55:48.235Z,12.60
2019-05-01T08:56:53.031Z,11.40
2019-05-01T08:57:54.888Z,13.60
2019-05-01T08:58:57.412Z,12.40
2019-05-01T09:00:02.081Z,11.20
2019-05-01T09:01:05.586Z,11.40
2019-05-01T09:02:09.765Z,10.80
2019-05-01T09:03:13.547Z,13.40
2019-05-01T09:04:18.775Z,12.80
2019-05-01T09:05:28.746Z,11.40
2019-05-01T09:06:34.594Z,14.00
2019-05-01T09:07:32.486Z,10.20
2019-05-01T09:08:35.572Z,11.60
2019-05-01T09:09:39.830Z,11.00
2019-05-01T09:10:42.958Z,10.00
2019-05-01T09:11:46.023Z,11.40
2019-05-01T09:12:52.006Z,11.00
2019-05-01T09:13:54.666Z,15.00
2019-05-01T09:14:58.786Z,12.00
2019-05-01T09:16:01.840Z,10.60
2019-05-01T09:17:06.833Z,10.00
2019-05-01T09:18:10.493Z,13.20
2019-05-01T09:19:12.564Z,7.60
2019-05-01T09:20:17.248Z,12.00
2019-05-01T09:21:20.682Z,12.00
2019-05-01T09:22:23.799Z,12.60
2019-05-01T09:23:26.323Z,11.00
2019-05-01T09:24:29.454Z,11.20
2019-05-01T09:25:43.783Z,13.40
2019-05-01T09:26:50.220Z,12.80
2019-05-01T09:27:59.568Z,12.00
2019-05-01T09:29:02.745Z,10.60
2019-05-01T09:30:12.335Z,13.80
2019-05-01T09:31:17.047Z,11.60
2019-05-01T09:32:19.949Z,11.00
2019-05-01T09:33:26.232Z,12.00
2019-05-01T09:34:28.167Z,11.00
2019-05-01T09:35:30.637Z,11.40
2019-05-01T09:36:34.629Z,10.20
2019-05-01T09:37:38.978Z,13.60
2019-05-01T09:38:41.505Z,11.00
2019-05-01T09:39:47.210Z,12.60
2019-05-01T09:40:48.607Z,11.00
2019-05-01T09:41:52.513Z,10.60
2019-05-01T09:42:59.456Z,12.40
2019-05-01T09:44:00.821Z,13.00
2019-05-01T09:45:07.077Z,10.80
2019-05-01T09:46:09.792Z,12.40
2019-05-01T09:47:13.504Z,11.00
2019-05-01T09:48:17.082Z,9.80
2019-05-01T09:49:20.493Z,11.80
2019-05-01T09:50:25.870Z,10.80
2019-05-01T09:51:47.673Z,10.40
2019-05-01T09:52:55.232Z,11.40
2019-05-01T09:53:57.906Z,11.00
2019-05-01T09:55:02.172Z,11.00
2019-05-01T09:56:15.028Z,9.60
2019-05-01T09:57:18.170Z,10.80
2019-05-01T09:58:23.254Z,11.20
2019-05-01T09:59:29.213Z,11.40
2019-05-01T10:00:33.951Z,8.60
2019-05-01T10:01:36.235Z,9.80
2019-05-01T10:02:42.196Z,12.00
2019-05-01T10:03:44.861Z,12.00
2019-05-01T10:04:49.252Z,9.60
2019-05-01T10:05:51.826Z,11.80
2019-05-01T10:06:54.120Z,11.80
2019-05-01T10:08:03.971Z,8.80
2019-05-01T10:09:06.917Z,11.20
2019-05-01T10:10:11.361Z,12.60
2019-05-01T10:11:14.219Z,11.60
2019-05-01T10:12:16.750Z,12.00
2019-05-01T10:13:22.429Z,14.00
2019-05-01T10:14:24.147Z,10.00
2019-05-01T10:15:26.685Z,11.20
2019-05-01T10:16:29.252Z,10.20
2019-05-01T10:17:33.144Z,9.00
2019-05-01T10:18:37.285Z,12.00
2019-05-01T10:19:40.037Z,11.60
2019-05-01T10:20:43.030Z,13.60
2019-05-01T10:21:45.107Z,10.40
2019-05-01T10:22:49.435Z,11.20
2019-05-01T10:23:52.923Z,10.80
2019-05-01T10:24:54.761Z,13.00
2019-05-01T10:25:59.501Z,8.40
2019-05-01T10:27:03.696Z,12.00
2019-05-01T10:28:17.424Z,11.60
2019-05-01T10:29:21.370Z,14.00
2019-05-01T10:30:36.337Z,12.00
2019-05-01T10:31:49.507Z,14.60
2019-05-01T10:32:57.907Z,12.80
2019-05-01T10:34:07.653Z,9.00
2019-05-01T10:35:21.070Z,10.00
2019-05-01T10:36:31.475Z,9.80
2019-05-01T10:37:35.495Z,10.80
2019-05-01T10:38:40.013Z,9.80
2019-05-01T10:39:43.167Z,11.60
2019-05-01T10:40:46.080Z,11.00
2019-05-01T10:41:49.962Z,10.00
2019-05-01T10:42:54.735Z,11.20
2019-05-01T10:43:57.075Z,12.80
2019-05-01T10:44:59.647Z,9.20
2019-05-01T10:46:01.721Z,13.00
2019-05-01T10:47:04.371Z,11.00
2019-05-01T10:48:07.078Z,10.20
2019-05-01T10:49:08.984Z,9.00
2019-05-01T10:50:14.866Z,9.00
2019-05-01T10:51:17.796Z,9.00
2019-05-01T10:52:20.987Z,9.00
2019-05-01T10:53:24.796Z,11.60
2019-05-01T10:54:31.054Z,11.40
2019-05-01T10:55:34.502Z,8.80
2019-05-01T10:56:37.756Z,12.80
2019-05-01T10:57:42.122Z,8.40
2019-05-01T10:58:45.768Z,11.60
2019-05-01T10:59:49.830Z,9.80
2019-05-01T11:00:54.852Z,9.00
2019-05-01T11:02:00.400Z,10.00
2019-05-01T11:03:03.076Z,12.60
2019-05-01T11:04:06.818Z,9.00
2019-05-01T11:05:09.890Z,8.60
2019-05-01T11:06:12.274Z,9.00
2019-05-01T11:07:15.004Z,9.00
2019-05-01T11:08:17.518Z,8.40
2019-05-01T11:09:20.238Z,11.40
2019-05-01T11:10:23.538Z,8.20
2019-05-01T11:11:25.715Z,8.80
2019-05-01T11:12:27.578Z,7.00
2019-05-01T11:13:29.807Z,7.80
2019-05-01T11:14:32.711Z,8.80
2019-05-01T11:15:35.292Z,9.00
2019-05-01T11:16:37.831Z,8.20
2019-05-01T11:17:40.383Z,7.80
2019-05-01T11:18:43.078Z,9.80
2019-05-01T11:19:45.615Z,7.80
2019-05-01T11:20:48.091Z,8.20
2019-05-01T11:21:50.865Z,8.80
2019-05-01T11:22:53.398Z,7.40
2019-05-01T11:23:55.997Z,8.80
2019-05-01T11:24:58.481Z,8.60
2019-05-01T11:26:01.362Z,10.20
2019-05-01T11:27:07.351Z,10.40
2019-05-01T11:28:09.981Z,8.20
2019-05-01T11:29:12.869Z,8.00
2019-05-01T11:30:16.300Z,8.00
2019-05-01T11:31:20.467Z,8.80
2019-05-01T11:32:27.658Z,10.20
2019-05-01T11:33:48.647Z,8.00
2019-05-01T11:34:51.623Z,9.80
2019-05-01T11:36:08.947Z,9.00
2019-05-01T11:37:09.357Z,10.80
2019-05-01T11:38:15.340Z,8.00
2019-05-01T11:39:22.592Z,9.00
2019-05-01T11:40:42.618Z,8.40
2019-05-01T11:41:57.376Z,7.40
2019-05-01T11:43:02.489Z,8.00
2019-05-01T11:44:05.387Z,8.60
2019-05-01T11:45:09.317Z,8.20
2019-05-01T11:46:11.701Z,7.80
2019-05-01T11:47:15.829Z,9.40
2019-05-01T11:48:18.551Z,11.40
2019-05-01T11:49:20.845Z,8.60
2019-05-01T11:50:23.502Z,9.40
2019-05-01T11:51:25.384Z,8.80
2019-05-01T11:52:27.925Z,6.80
2019-05-01T11:53:31.925Z,8.20
2019-05-01T11:54:34.229Z,7.80
2019-05-01T11:55:36.444Z,8.00
2019-05-01T11:56:39.160Z,7.40
2019-05-01T11:57:41.480Z,10.20
2019-05-01T11:58:44.176Z,6.80
2019-05-01T11:59:46.490Z,6.20
2019-05-01T12:00:49.987Z,7.20
2019-05-01T12:01:52.632Z,10.20
2019-05-01T12:02:56.352Z,7.20
2019-05-01T12:03:58.734Z,7.60
2019-05-01T12:05:03.078Z,7.40
2019-05-01T12:06:07.381Z,9.00
2019-05-01T12:07:09.504Z,7.00
2019-05-01T12:08:11.934Z,9.20
2019-05-01T12:09:15.131Z,7.00
2019-05-01T12:10:19.240Z,7.60
2019-05-01T12:11:23.600Z,6.00
2019-05-01T12:12:30.508Z,6.60
2019-05-01T12:13:43.172Z,9.40
2019-05-01T12:14:39.638Z,7.00
2019-05-01T12:15:45.490Z,6.20
2019-05-01T12:16:51.824Z,8.00
2019-05-01T12:17:55.992Z,8.00
2019-05-01T12:18:58.875Z,7.60
2019-05-01T12:20:05.045Z,5.60
2019-05-01T12:21:08.704Z,8.60
2019-05-01T12:22:11.202Z,8.60
2019-05-01T12:23:13.613Z,7.20
2019-05-01T12:24:16.107Z,7.20
2019-05-01T12:25:18.049Z,7.40
2019-05-01T12:26:20.357Z,8.00
2019-05-01T12:27:22.404Z,7.60
2019-05-01T12:28:27.207Z,6.40
2019-05-01T12:29:31.572Z,7.20
2019-05-01T12:30:35.066Z,8.00
2019-05-01T12:31:37.197Z,7.00
2019-05-01T12:32:43.876Z,7.00
2019-05-01T12:33:46.246Z,6.40
2019-05-01T12:34:48.990Z,7.20
2019-05-01T12:35:53.511Z,6.20
2019-05-01T12:37:03.569Z,7.60
2019-05-01T12:38:05.855Z,8.60
2019-05-01T12:39:16.143Z,7.20
2019-05-01T12:40:19.292Z,7.40
2019-05-01T12:41:33.386Z,6.80
2019-05-01T12:42:36.037Z,6.60
2019-05-01T12:43:39.471Z,8.00
2019-05-01T12:44:42.055Z,7.40
2019-05-01T12:45:46.326Z,7.80
2019-05-01T12:46:54.082Z,7.60
2019-05-01T12:47:58.992Z,8.40
2019-05-01T12:49:01.360Z,6.80
2019-05-01T12:50:07.150Z,8.40
2019-05-01T12:51:09.990Z,7.00
2019-05-01T12:52:31.212Z,7.40
2019-05-01T12:53:38.750Z,6.80
2019-05-01T12:54:48.488Z,7.00
2019-05-01T12:55:52.623Z,8.60
2019-05-01T12:57:01.274Z,7.00
2019-05-01T12:58:03.416Z,8.20
2019-05-01T12:59:05.950Z,8.00
2019-05-01T13:00:10.187Z,8.00
2019-05-01T13:01:12.100Z,7.00
2019-05-01T13:02:16.010Z,9.00
2019-05-01T13:03:18.358Z,6.00
2019-05-01T13:04:20.362Z,6.00
2019-05-01T13:05:22.584Z,8.40
2019-05-01T13:06:24.492Z,9.40
2019-05-01T13:07:27.049Z,9.00
2019-05-01T13:08:32.326Z,7.60
2019-05-01T13:09:34.510Z,5.60
2019-05-01T13:10:37.864Z,7.20
2019-05-01T13:11:40.545Z,7.00
2019-05-01T13:12:42.889Z,7.60
2019-05-01T13:13:45.498Z,6.20
2019-05-01T13:14:48.171Z,7.00
2019-05-01T13:15:50.360Z,7.80
2019-05-01T13:16:53.123Z,8.80
2019-05-01T13:17:56.222Z,7.40
2019-05-01T13:19:00.307Z,7.00
2019-05-01T13:20:05.917Z,7.40
2019-05-01T13:21:08.267Z,7.00
2019-05-01T13:22:12.865Z,7.40
2019-05-01T13:23:15.321Z,8.60
2019-05-01T13:24:18.457Z,7.00
2019-05-01T13:25:21.584Z,6.20
2019-05-01T13:26:28.822Z,8.00
2019-05-01T13:27:51.692Z,8.60
2019-05-01T13:28:57.657Z,6.80
2019-05-01T13:30:07.589Z,8.00
2019-05-01T13:31:21.435Z,8.20
2019-05-01T13:32:24.179Z,7.00
2019-05-01T13:33:26.897Z,8.40
2019-05-01T13:34:29.203Z,8.80
2019-05-01T13:35:31.978Z,7.20
2019-05-01T13:36:34.173Z,8.00
2019-05-01T13:37:37.011Z,8.20
2019-05-01T13:38:39.675Z,8.20
2019-05-01T13:39:43.615Z,6.00
2019-05-01T13:40:46.352Z,7.60
2019-05-01T13:41:48.761Z,9.40
2019-05-01T13:42:51.658Z,8.40
2019-05-01T13:43:54.586Z,7.60
2019-05-01T13:44:56.894Z,9.60
2019-05-01T13:45:58.631Z,8.60
2019-05-01T13:47:01.129Z,7.40
2019-05-01T13:48:05.399Z,7.40
2019-05-01T13:49:08.592Z,6.60
2019-05-01T13:50:11.996Z,9.00
2019-05-01T13:51:15.114Z,7.60
2019-05-01T13:52:17.860Z,8.00
2019-05-01T13:53:20.415Z,7.00
2019-05-01T13:54:23.166Z,6.20
2019-05-01T13:55:25.617Z,7.00
2019-05-01T13:56:29.298Z,7.80
2019-05-01T13:57:32.183Z,7.20
2019-05-01T13:58:34.036Z,7.00
2019-05-01T13:59:36.484Z,7.00
2019-05-01T14:00:39.932Z,7.20
2019-05-01T14:01:44.486Z,7.20
2019-05-01T14:02:47.311Z,6.60
2019-05-01T14:03:49.199Z,7.40
2019-05-01T14:04:51.628Z,8.00